Time;durP1;ratioP1;P1;durP2;ratioP2;P2;SDS_P1;SDS_P2;PMS_P1;PMS_P2;Temp;Humidity;BMP_temperature;BMP_pressure;BME280_temperature;BME280_humidity;BME280_pressure;Samples;Min_cycle;Max_cycle;Signal;HPM_P1;HPM_P2
2022/11/07 00:03:15;;;;;;;5.78;4.20;;;;;;;;;;10363961;28;20088;-53
2022/11/07 00:08:15;;;;;;;10.73;3.80;;;;;;;;;;10362513;28;20117;-56
2022/11/07 00:13:16;;;;;;;5.85;4.00;;;;;;;;;;10363980;28;20035;-51
2022/11/07 00:18:16;;;;;;;10.18;3.78;;;;;;;;;;10364078;28;20022;-51
2022/11/07 00:23:16;;;;;;;9.98;4.38;;;;;;;;;;10363568;28;20037;-51
2022/11/07 00:28:17;;;;;;;7.30;4.47;;;;;;;;;;10364213;28;20030;-56
2022/11/07 00:33:17;;;;;;;8.73;3.80;;;;;;;;;;10363277;28;20042;-57
2022/11/07 00:38:17;;;;;;;6.55;3.72;;;;;;;;;;10364956;28;20033;-53
2022/11/07 00:43:17;;;;;;;4.72;3.65;;;;;;;;;;10371995;28;20034;-54
2022/11/07 00:48:18;;;;;;;6.35;3.88;;;;;;;;;;10372025;28;20457;-53
2022/11/07 00:53:18;;;;;;;4.10;3.40;;;;;;;;;;10370111;28;20038;-58
2022/11/07 00:58:19;;;;;;;4.70;3.70;;;;;;;;;;10371327;28;20034;-50
2022/11/07 01:08:38;;;;;;;5.75;3.75;;;;;;;;;;10356308;28;20529;-48
2022/11/07 01:13:38;;;;;;;5.53;3.50;;;;;;;;;;10369687;28;20022;-50
2022/11/07 01:18:38;;;;;;;5.30;3.40;;;;;;;;;;10370067;28;20041;-50
2022/11/07 01:23:39;;;;;;;4.20;3.30;;;;;;;;;;10369268;28;20116;-50
2022/11/07 01:28:39;;;;;;;4.22;3.08;;;;;;;;;;10369939;28;20489;-51
2022/11/07 01:33:40;;;;;;;4.13;3.67;;;;;;;;;;10363839;28;20473;-49
2022/11/07 01:38:41;;;;;;;5.00;3.63;;;;;;;;;;10367585;28;20502;-50
2022/11/07 01:43:46;;;;;;;4.45;3.10;;;;;;;;;;10368248;28;20232;-50
2022/11/07 01:48:51;;;;;;;4.65;3.35;;;;;;;;;;10367382;28;20117;-52
2022/11/07 01:53:52;;;;;;;9.18;3.38;;;;;;;;;;10367429;28;20037;-55
2022/11/07 01:58:53;;;;;;;7.10;3.30;;;;;;;;;;10368748;28;20076;-52
2022/11/07 02:03:55;;;;;;;6.18;3.10;;;;;;;;;;10365091;28;20493;-54
2022/11/07 02:08:55;;;;;;;6.35;3.15;;;;;;;;;;10368910;28;20104;-49
2022/11/07 02:13:56;;;;;;;6.30;3.03;;;;;;;;;;10366914;28;20026;-50
2022/11/07 02:18:56;;;;;;;6.97;3.67;;;;;;;;;;10367811;28;20508;-50
2022/11/07 02:24:03;;;;;;;4.75;2.95;;;;;;;;;;10368649;28;20354;-53
2022/11/07 02:29:06;;;;;;;5.85;3.30;;;;;;;;;;10364560;28;20100;-51
2022/11/07 02:34:07;;;;;;;3.90;3.10;;;;;;;;;;10366556;28;20041;-51
2022/11/07 02:39:07;;;;;;;5.53;3.75;;;;;;;;;;10361865;28;20041;-51
2022/11/07 02:44:08;;;;;;;4.10;2.97;;;;;;;;;;10365558;28;20037;-51
2022/11/07 02:49:09;;;;;;;4.80;3.20;;;;;;;;;;10366220;28;20126;-52
2022/11/07 02:54:09;;;;;;;3.33;3.00;;;;;;;;;;10365642;28;20396;-55
2022/11/07 02:59:09;;;;;;;4.43;3.33;;;;;;;;;;10366680;28;20042;-49
2022/11/07 03:04:10;;;;;;;2.90;2.63;;;;;;;;;;10364519;28;20105;-49
2022/11/07 03:09:10;;;;;;;6.35;3.20;;;;;;;;;;10365600;28;20076;-54
2022/11/07 03:14:10;;;;;;;4.40;3.10;;;;;;;;;;10367114;28;20036;-53
2022/11/07 03:19:10;;;;;;;5.57;3.10;;;;;;;;;;10363529;28;20033;-51
2022/11/07 03:24:11;;;;;;;3.55;2.70;;;;;;;;;;10366280;28;20026;-53
2022/11/07 03:29:11;;;;;;;4.45;3.08;;;;;;;;;;10363446;28;20080;-55
2022/11/07 03:34:11;;;;;;;2.83;2.53;;;;;;;;;;10364427;28;20084;-54
2022/11/07 03:39:12;;;;;;;3.90;2.80;;;;;;;;;;10365470;28;20038;-55
2022/11/07 03:44:13;;;;;;;4.57;2.90;;;;;;;;;;10365570;28;20052;-54
2022/11/07 03:49:13;;;;;;;4.63;3.03;;;;;;;;;;10364443;28;20497;-54
2022/11/07 03:54:13;;;;;;;4.50;2.45;;;;;;;;;;10359005;28;20026;-52
2022/11/07 03:59:14;;;;;;;3.65;2.50;;;;;;;;;;10365008;28;20472;-53
2022/11/07 04:04:14;;;;;;;3.28;2.90;;;;;;;;;;10350335;28;20042;-53
2022/11/07 04:09:14;;;;;;;5.22;2.75;;;;;;;;;;10364669;28;20034;-52
2022/11/07 04:19:33;;;;;;;;;;;;;;;;;;10371165;28;20223;-59
2022/11/07 04:24:33;;;;;;;6.18;2.40;;;;;;;;;;10372951;28;19914;-50
2022/11/07 04:29:34;;;;;;;2.88;2.38;;;;;;;;;;10369885;28;20050;-49
2022/11/07 04:34:34;;;;;;;3.25;2.28;;;;;;;;;;10373623;28;20026;-52
2022/11/07 04:39:34;;;;;;;2.72;2.50;;;;;;;;;;10370353;28;20026;-51
2022/11/07 04:44:34;;;;;;;3.67;2.80;;;;;;;;;;10372461;28;20476;-50
2022/11/07 04:49:35;;;;;;;3.63;2.57;;;;;;;;;;10371804;28;20034;-52
2022/11/07 04:54:35;;;;;;;2.67;2.07;;;;;;;;;;10370958;28;20038;-49
2022/11/07 04:59:35;;;;;;;3.72;2.38;;;;;;;;;;10371304;28;20275;-52
2022/11/07 05:04:36;;;;;;;2.85;2.50;;;;;;;;;;10370160;28;20041;-51
2022/11/07 05:09:36;;;;;;;2.75;2.30;;;;;;;;;;10369482;28;20033;-53
2022/11/07 05:14:36;;;;;;;3.40;2.60;;;;;;;;;;10370600;28;20046;-51
2022/11/07 05:19:36;;;;;;;2.80;2.47;;;;;;;;;;10369715;28;20029;-50
2022/11/07 05:24:37;;;;;;;2.87;2.40;;;;;;;;;;10366283;28;20041;-54
2022/11/07 05:29:37;;;;;;;2.95;2.30;;;;;;;;;;10368499;28;20042;-53
2022/11/07 05:34:38;;;;;;;2.50;2.17;;;;;;;;;;10369441;28;20041;-51
2022/11/07 05:39:38;;;;;;;2.97;2.50;;;;;;;;;;10363822;28;20261;-54
2022/11/07 05:44:38;;;;;;;2.83;2.47;;;;;;;;;;10369811;28;20485;-52
2022/11/07 05:49:38;;;;;;;3.08;2.38;;;;;;;;;;10369822;28;20479;-53
2022/11/07 05:54:39;;;;;;;2.70;2.40;;;;;;;;;;10366252;28;20041;-53
2022/11/07 05:59:39;;;;;;;2.85;2.00;;;;;;;;;;10365987;28;20068;-54
2022/11/07 06:04:39;;;;;;;6.90;2.35;;;;;;;;;;10366943;28;20500;-49
2022/11/07 06:09:39;;;;;;;4.88;2.30;;;;;;;;;;10365815;28;20036;-49
2022/11/07 06:14:40;;;;;;;2.83;2.28;;;;;;;;;;10365535;28;20077;-53
2022/11/07 06:19:40;;;;;;;2.55;2.22;;;;;;;;;;10367363;28;20089;-56
2022/11/07 06:24:40;;;;;;;2.15;1.92;;;;;;;;;;10366170;28;20397;-56
2022/11/07 06:29:41;;;;;;;2.20;2.00;;;;;;;;;;10366534;28;20050;-55
2022/11/07 06:34:41;;;;;;;2.20;1.85;;;;;;;;;;10366963;28;20025;-61
2022/11/07 06:39:41;;;;;;;14.77;2.90;;;;;;;;;;10359683;28;20026;-58
2022/11/07 06:44:42;;;;;;;4.97;2.23;;;;;;;;;;10366182;28;20025;-59
2022/11/07 06:49:42;;;;;;;11.77;2.23;;;;;;;;;;10364784;28;20026;-57
2022/11/07 06:54:43;;;;;;;12.48;2.85;;;;;;;;;;10362993;28;20858;-59
2022/11/07 06:59:43;;;;;;;17.10;3.15;;;;;;;;;;10357303;28;20259;-61
2022/11/07 07:04:43;;;;;;;9.93;3.00;;;;;;;;;;10364456;28;20470;-61
2022/11/07 07:09:44;;;;;;;11.20;3.30;;;;;;;;;;10363943;28;22745;-64
2022/11/07 07:14:44;;;;;;;6.53;3.05;;;;;;;;;;10362817;28;20018;-58
2022/11/07 07:19:44;;;;;;;6.63;3.13;;;;;;;;;;10366192;28;20350;-60
2022/11/07 07:24:46;;;;;;;7.43;3.15;;;;;;;;;;10366607;28;20374;-64
2022/11/07 07:29:47;;;;;;;7.03;3.20;;;;;;;;;;10363691;28;20081;-56
2022/11/07 07:34:47;;;;;;;4.13;2.75;;;;;;;;;;10366707;28;20117;-62
2022/11/07 07:39:47;;;;;;;7.60;2.88;;;;;;;;;;10359439;28;20034;-63
2022/11/07 07:44:47;;;;;;;6.93;3.15;;;;;;;;;;10366466;28;20527;-63
2022/11/07 07:49:48;;;;;;;8.68;2.85;;;;;;;;;;10356070;28;20393;-62
2022/11/07 07:54:48;;;;;;;8.13;2.72;;;;;;;;;;10366451;28;20095;-60
2022/11/07 07:59:48;;;;;;;5.03;2.78;;;;;;;;;;10365467;28;20035;-52
2022/11/07 08:04:49;;;;;;;9.68;3.28;;;;;;;;;;10364764;28;20042;-55
2022/11/07 08:09:49;;;;;;;9.98;3.13;;;;;;;;;;10364357;28;20116;-59
2022/11/07 08:14:49;;;;;;;4.88;2.72;;;;;;;;;;10364032;28;20025;-57
2022/11/07 08:19:49;;;;;;;6.75;2.75;;;;;;;;;;10365067;28;20036;-56
2022/11/07 08:24:50;;;;;;;5.03;2.70;;;;;;;;;;10364424;28;20026;-57
2022/11/07 08:29:50;;;;;;;5.55;2.47;;;;;;;;;;10364105;28;20847;-53
2022/11/07 08:34:50;;;;;;;5.88;2.53;;;;;;;;;;10365261;28;20065;-59
2022/11/07 08:39:50;;;;;;;4.72;2.40;;;;;;;;;;10357196;28;20279;-60
2022/11/07 08:44:51;;;;;;;5.87;2.90;;;;;;;;;;10364598;28;20034;-52
2022/11/07 08:49:51;;;;;;;7.90;2.83;;;;;;;;;;10364660;28;20030;-62
2022/11/07 08:54:51;;;;;;;7.15;2.45;;;;;;;;;;10364483;28;20024;-55
2022/11/07 08:59:51;;;;;;;6.32;2.55;;;;;;;;;;10363295;28;20059;-52
2022/11/07 09:04:52;;;;;;;5.25;2.28;;;;;;;;;;10371005;28;20026;-52
2022/11/07 09:09:52;;;;;;;7.10;2.50;;;;;;;;;;10369941;28;20026;-59
2022/11/07 09:14:52;;;;;;;3.35;2.78;;;;;;;;;;10370929;28;20037;-58
2022/11/07 09:19:52;;;;;;;7.45;2.78;;;;;;;;;;10370508;28;20257;-59
2022/11/07 09:24:53;;;;;;;4.72;2.60;;;;;;;;;;10370183;28;20448;-60
2022/11/07 09:29:53;;;;;;;4.10;2.50;;;;;;;;;;10370300;28;20422;-59
2022/11/07 09:34:53;;;;;;;4.85;1.80;;;;;;;;;;10369917;28;20435;-59
2022/11/07 09:39:54;;;;;;;5.20;2.50;;;;;;;;;;10356640;28;20101;-62
2022/11/07 09:44:58;;;;;;;4.47;2.70;;;;;;;;;;10359385;28;20026;-60
2022/11/07 09:50:00;;;;;;;6.45;2.65;;;;;;;;;;10370378;28;20552;-58
2022/11/07 09:55:07;;;;;;;4.13;2.38;;;;;;;;;;10369050;28;20045;-62
2022/11/07 10:00:14;;;;;;;4.60;2.10;;;;;;;;;;10367959;28;20029;-53
2022/11/07 10:05:23;;;;;;;4.28;2.08;;;;;;;;;;10363347;28;20048;-56
2022/11/07 10:10:45;;;;;;;6.05;2.50;;;;;;;;;;10367101;28;20087;-54
2022/11/07 10:15:53;;;;;;;3.63;2.38;;;;;;;;;;10366113;28;20030;-50
2022/11/07 10:21:08;;;;;;;3.08;1.98;;;;;;;;;;10366957;28;20038;-50
2022/11/07 10:26:09;;;;;;;4.63;2.15;;;;;;;;;;10368116;28;20073;-54
2022/11/07 10:31:11;;;;;;;8.93;2.40;;;;;;;;;;10367118;28;20141;-56
2022/11/07 10:36:25;;;;;;;2.20;2.00;;;;;;;;;;10367761;28;20042;-54
2022/11/07 10:41:30;;;;;;;3.72;2.03;;;;;;;;;;10356458;28;20137;-60
2022/11/07 10:46:40;;;;;;;3.80;2.00;;;;;;;;;;10367170;28;20111;-57
2022/11/07 10:51:41;;;;;;;2.53;1.75;;;;;;;;;;10360909;28;20030;-59
2022/11/07 10:56:45;;;;;;;2.22;1.83;;;;;;;;;;10360955;28;20401;-53
2022/11/07 11:01:49;;;;;;;5.20;2.17;;;;;;;;;;10359945;28;20030;-55
2022/11/07 11:07:09;;;;;;;2.17;1.98;;;;;;;;;;10363763;28;20026;-54
2022/11/07 11:12:11;;;;;;;3.53;2.03;;;;;;;;;;10364029;28;20073;-55
2022/11/07 11:17:27;;;;;;;3.67;2.33;;;;;;;;;;10353537;28;20025;-59
2022/11/07 11:22:28;;;;;;;3.72;2.00;;;;;;;;;;10363161;28;20030;-57
2022/11/07 11:27:30;;;;;;;2.42;1.90;;;;;;;;;;10363247;28;20393;-60
2022/11/07 11:32:34;;;;;;;2.10;1.70;;;;;;;;;;10358020;28;20073;-56
2022/11/07 11:37:37;;;;;;;3.25;2.03;;;;;;;;;;10355471;28;20091;-59
2022/11/07 11:42:56;;;;;;;3.65;1.80;;;;;;;;;;10357334;28;20402;-59
2022/11/07 11:48:25;;;;;;;3.35;2.03;;;;;;;;;;10363861;28;20030;-54
2022/11/07 11:53:26;;;;;;;3.22;2.20;;;;;;;;;;10362061;28;20034;-53
2022/11/07 11:58:52;;;;;;;2.65;1.90;;;;;;;;;;10357637;28;20498;-58
2022/11/07 12:04:02;;;;;;;2.25;1.80;;;;;;;;;;10344370;28;20511;-57
2022/11/07 12:09:14;;;;;;;3.25;1.90;;;;;;;;;;10360686;28;20034;-55
2022/11/07 12:14:34;;;;;;;4.18;1.70;;;;;;;;;;10362910;28;20030;-57
2022/11/07 12:19:40;;;;;;;3.92;2.00;;;;;;;;;;10361789;28;20014;-59
2022/11/07 12:24:49;;;;;;;2.13;1.70;;;;;;;;;;10365338;28;20022;-59
2022/11/07 12:29:50;;;;;;;2.80;1.90;;;;;;;;;;10364084;28;20073;-59
2022/11/07 12:35:08;;;;;;;3.38;1.60;;;;;;;;;;10366103;28;20036;-50
2022/11/07 12:40:18;;;;;;;3.20;1.63;;;;;;;;;;10372792;28;20105;-63
2022/11/07 12:45:24;;;;;;;3.22;1.67;;;;;;;;;;10365217;28;20041;-58
2022/11/07 12:50:28;;;;;;;5.78;2.03;;;;;;;;;;10369328;28;20030;-62
2022/11/07 12:55:43;;;;;;;1.92;1.77;;;;;;;;;;10372747;28;20041;-58
2022/11/07 13:00:44;;;;;;;2.22;1.85;;;;;;;;;;10363090;28;20385;-63
2022/11/07 13:06:03;;;;;;;1.60;1.50;;;;;;;;;;10370485;28;20032;-56
2022/11/07 13:11:08;;;;;;;1.75;1.60;;;;;;;;;;10362593;28;20033;-61
2022/11/07 13:16:28;;;;;;;2.35;1.70;;;;;;;;;;10370642;28;20042;-63
2022/11/07 13:21:37;;;;;;;1.95;1.40;;;;;;;;;;10365018;28;20025;-56
2022/11/07 13:26:38;;;;;;;2.67;1.80;;;;;;;;;;10366874;28;20022;-57
2022/11/07 13:31:39;;;;;;;3.37;1.43;;;;;;;;;;10369079;28;20682;-56
2022/11/07 13:36:39;;;;;;;2.78;2.05;;;;;;;;;;10370059;28;20061;-60
2022/11/07 13:41:43;;;;;;;2.08;1.60;;;;;;;;;;10361095;28;20030;-54
2022/11/07 13:46:48;;;;;;;2.63;1.73;;;;;;;;;;10361062;28;20049;-60
2022/11/07 13:51:50;;;;;;;2.10;1.60;;;;;;;;;;10364712;28;20415;-60
2022/11/07 13:56:53;;;;;;;6.07;1.80;;;;;;;;;;10370356;28;20021;-57
2022/11/07 14:01:54;;;;;;;3.28;2.08;;;;;;;;;;10369997;28;20024;-51
2022/11/07 14:06:59;;;;;;;2.28;1.70;;;;;;;;;;10368663;28;20034;-50
2022/11/07 14:11:59;;;;;;;2.08;1.88;;;;;;;;;;10360762;28;20045;-55
2022/11/07 14:16:59;;;;;;;1.70;1.50;;;;;;;;;;10369502;28;20482;-57
2022/11/07 14:22:00;;;;;;;2.85;1.67;;;;;;;;;;10367932;28;20046;-49
2022/11/07 14:27:04;;;;;;;1.50;1.30;;;;;;;;;;10366565;28;20026;-59
2022/11/07 14:32:06;;;;;;;3.20;1.95;;;;;;;;;;10368317;28;20046;-59
2022/11/07 14:37:06;;;;;;;2.00;1.70;;;;;;;;;;10365713;28;20647;-62
2022/11/07 14:42:09;;;;;;;2.75;1.50;;;;;;;;;;10364905;28;20245;-52
2022/11/07 14:47:14;;;;;;;3.47;1.90;;;;;;;;;;10366000;28;20367;-52
2022/11/07 14:52:24;;;;;;;4.15;1.52;;;;;;;;;;10367237;28;20033;-58
2022/11/07 14:57:24;;;;;;;1.88;1.42;;;;;;;;;;10364759;28;20097;-55
2022/11/07 15:02:31;;;;;;;3.35;2.00;;;;;;;;;;10366840;28;20028;-58
2022/11/07 15:07:33;;;;;;;3.80;1.73;;;;;;;;;;10367075;28;20058;-60
2022/11/07 15:12:36;;;;;;;2.22;1.55;;;;;;;;;;10363667;28;20050;-61
2022/11/07 15:17:47;;;;;;;4.20;1.67;;;;;;;;;;10364676;28;20389;-61
2022/11/07 15:22:47;;;;;;;1.83;1.63;;;;;;;;;;10361784;28;20117;-55
2022/11/07 15:27:47;;;;;;;4.82;1.40;;;;;;;;;;10359771;28;20493;-55
2022/11/07 15:32:47;;;;;;;2.70;1.60;;;;;;;;;;10363249;28;20050;-56
2022/11/07 15:37:55;;;;;;;1.90;1.52;;;;;;;;;;10361883;28;20459;-55
2022/11/07 15:42:55;;;;;;;3.00;1.70;;;;;;;;;;10365470;28;20045;-60
2022/11/07 15:47:56;;;;;;;3.43;2.10;;;;;;;;;;10366591;28;20169;-51
2022/11/07 15:52:56;;;;;;;1.92;1.65;;;;;;;;;;10366013;28;20030;-54
2022/11/07 15:57:56;;;;;;;1.60;1.50;;;;;;;;;;10365235;28;20365;-60
2022/11/07 16:02:57;;;;;;;2.53;1.70;;;;;;;;;;10365511;28;20069;-50
2022/11/07 16:07:57;;;;;;;1.42;1.33;;;;;;;;;;10366137;28;20460;-49
2022/11/07 16:12:58;;;;;;;2.67;1.50;;;;;;;;;;10372087;28;20038;-58
2022/11/07 16:17:58;;;;;;;2.35;1.90;;;;;;;;;;10374311;28;20037;-55
2022/11/07 16:22:59;;;;;;;1.50;1.40;;;;;;;;;;10372886;28;20029;-55
2022/11/07 16:28:01;;;;;;;3.45;1.50;;;;;;;;;;10374102;28;20041;-56
2022/11/07 16:33:02;;;;;;;4.47;1.58;;;;;;;;;;10372974;28;20148;-56
2022/11/07 16:38:12;;;;;;;3.22;1.55;;;;;;;;;;10368183;28;20030;-55
2022/11/07 16:43:13;;;;;;;1.77;1.45;;;;;;;;;;10361025;28;20109;-56
2022/11/07 16:48:21;;;;;;;3.45;1.90;;;;;;;;;;10373474;28;20477;-56
2022/11/07 16:53:22;;;;;;;8.17;1.70;;;;;;;;;;10366723;28;20449;-63
2022/11/07 16:58:32;;;;;;;1.60;1.45;;;;;;;;;;10372356;28;20026;-57
2022/11/07 17:03:32;;;;;;;3.72;1.55;;;;;;;;;;10361828;28;20034;-60
2022/11/07 17:08:35;;;;;;;2.50;1.70;;;;;;;;;;10372093;28;20030;-56
2022/11/07 17:13:35;;;;;;;5.10;1.70;;;;;;;;;;10371456;28;20033;-56
2022/11/07 17:18:36;;;;;;;4.10;2.30;;;;;;;;;;10369727;28;20018;-58
2022/11/07 17:23:36;;;;;;;3.72;1.83;;;;;;;;;;10369156;28;20085;-61
2022/11/07 17:28:36;;;;;;;5.88;2.00;;;;;;;;;;10370680;28;20038;-58
2022/11/07 17:33:36;;;;;;;2.45;1.92;;;;;;;;;;10369968;28;20042;-61
2022/11/07 17:38:37;;;;;;;3.90;1.97;;;;;;;;;;10371109;28;20029;-62
2022/11/07 17:43:37;;;;;;;5.60;2.45;;;;;;;;;;10361230;28;20119;-57
2022/11/07 17:48:37;;;;;;;3.38;2.00;;;;;;;;;;10366207;28;20266;-59
2022/11/07 17:53:38;;;;;;;7.35;2.63;;;;;;;;;;10359274;28;20037;-61
2022/11/07 17:58:38;;;;;;;4.50;2.10;;;;;;;;;;10359736;28;20029;-60
2022/11/07 18:03:38;;;;;;;4.93;2.30;;;;;;;;;;10370791;28;20055;-58
2022/11/07 18:08:39;;;;;;;4.57;2.40;;;;;;;;;;10370434;28;20037;-61
2022/11/07 18:13:39;;;;;;;5.18;1.90;;;;;;;;;;10369617;28;20176;-53
2022/11/07 18:18:39;;;;;;;12.83;2.23;;;;;;;;;;10368319;28;20044;-59
2022/11/07 18:23:40;;;;;;;3.07;2.13;;;;;;;;;;10366435;28;20416;-52
2022/11/07 18:28:41;;;;;;;4.00;2.42;;;;;;;;;;10367611;28;20598;-60
2022/11/07 18:33:42;;;;;;;6.35;2.45;;;;;;;;;;10366608;28;20033;-62
2022/11/07 18:38:43;;;;;;;5.13;2.33;;;;;;;;;;10367190;28;20121;-60
2022/11/07 18:43:43;;;;;;;3.75;2.60;;;;;;;;;;10367835;28;20077;-62
2022/11/07 18:48:44;;;;;;;4.30;2.50;;;;;;;;;;10368027;28;20115;-59
2022/11/07 18:53:45;;;;;;;3.28;2.22;;;;;;;;;;10364135;28;20430;-62
2022/11/07 18:58:45;;;;;;;5.17;2.50;;;;;;;;;;10363035;28;20389;-61
2022/11/07 19:03:46;;;;;;;6.00;2.55;;;;;;;;;;10347446;28;20470;-62
2022/11/07 19:08:47;;;;;;;3.17;2.38;;;;;;;;;;10358606;28;20040;-59
2022/11/07 19:13:47;;;;;;;4.75;2.78;;;;;;;;;;10356904;28;20484;-62
2022/11/07 19:18:48;;;;;;;4.43;3.10;;;;;;;;;;10359112;28;20505;-63
2022/11/07 19:23:48;;;;;;;4.70;2.78;;;;;;;;;;10359545;28;20569;-61
2022/11/07 19:28:49;;;;;;;3.70;2.88;;;;;;;;;;10360693;28;20065;-58
2022/11/07 19:33:49;;;;;;;8.10;3.20;;;;;;;;;;10358057;28;20045;-62
2022/11/07 19:38:50;;;;;;;4.50;3.30;;;;;;;;;;10353957;28;20631;-60
2022/11/07 19:43:50;;;;;;;5.67;2.80;;;;;;;;;;10355963;28;20044;-60
2022/11/07 19:48:51;;;;;;;5.67;3.13;;;;;;;;;;10357242;28;20118;-60
2022/11/07 19:53:55;;;;;;;6.78;3.55;;;;;;;;;;10359124;28;20033;-62
2022/11/07 19:58:55;;;;;;;4.85;3.60;;;;;;;;;;10360392;28;20517;-62
2022/11/07 20:03:55;;;;;;;6.97;3.60;;;;;;;;;;10362245;28;20056;-60
2022/11/07 20:08:57;;;;;;;5.38;3.70;;;;;;;;;;10358645;28;20488;-59
2022/11/07 20:13:58;;;;;;;6.70;4.22;;;;;;;;;;10355896;28;20083;-57
2022/11/07 20:18:59;;;;;;;6.97;4.20;;;;;;;;;;10357041;28;20536;-62
2022/11/07 20:23:59;;;;;;;8.68;4.00;;;;;;;;;;10363208;28;20042;-49
2022/11/07 20:28:59;;;;;;;6.20;3.77;;;;;;;;;;10362410;28;20036;-48
2022/11/07 20:34:00;;;;;;;9.27;4.47;;;;;;;;;;10348216;28;20040;-52
2022/11/07 20:39:01;;;;;;;6.13;4.15;;;;;;;;;;10347867;28;20099;-48
2022/11/07 20:44:04;;;;;;;8.20;3.85;;;;;;;;;;10362052;28;20034;-48
2022/11/07 20:49:05;;;;;;;9.45;4.55;;;;;;;;;;10360235;28;20300;-48
2022/11/07 20:54:05;;;;;;;6.43;4.53;;;;;;;;;;10359429;28;20084;-49
2022/11/07 20:59:06;;;;;;;8.13;5.07;;;;;;;;;;10366183;28;20677;-48
2022/11/07 21:04:12;;;;;;;8.20;4.80;;;;;;;;;;10368368;28;20463;-48
2022/11/07 21:09:12;;;;;;;9.13;5.43;;;;;;;;;;10366238;28;20038;-51
2022/11/07 21:14:12;;;;;;;6.50;4.90;;;;;;;;;;10367823;28;20044;-54
2022/11/07 21:19:13;;;;;;;8.93;5.43;;;;;;;;;;10365484;28;20022;-49
2022/11/07 21:24:14;;;;;;;10.20;4.35;;;;;;;;;;10367041;28;20034;-50
2022/11/07 21:29:14;;;;;;;8.02;5.15;;;;;;;;;;10361791;28;20501;-48
2022/11/07 21:34:14;;;;;;;12.23;5.78;;;;;;;;;;10369862;28;20362;-48
2022/11/07 21:39:16;;;;;;;12.35;5.82;;;;;;;;;;10370779;28;20046;-49
2022/11/07 21:44:16;;;;;;;7.32;5.05;;;;;;;;;;10370221;28;20478;-49
2022/11/07 21:49:16;;;;;;;13.95;5.25;;;;;;;;;;10364546;28;20026;-48
2022/11/07 21:54:17;;;;;;;9.45;5.20;;;;;;;;;;10370816;28;20040;-48
2022/11/07 21:59:18;;;;;;;10.05;4.95;;;;;;;;;;10363402;28;20090;-48
2022/11/07 22:04:18;;;;;;;9.98;5.95;;;;;;;;;;10362345;28;20030;-47
2022/11/07 22:09:22;;;;;;;10.52;5.38;;;;;;;;;;10367087;28;20112;-51
2022/11/07 22:14:22;;;;;;;10.52;5.75;;;;;;;;;;10366991;28;20414;-56
2022/11/07 22:19:22;;;;;;;8.95;5.13;;;;;;;;;;10367412;28;20092;-56
2022/11/07 22:24:25;;;;;;;13.38;4.75;;;;;;;;;;10364809;28;20048;-59
2022/11/07 22:29:26;;;;;;;11.88;4.88;;;;;;;;;;10357483;28;20512;-61
2022/11/07 22:34:26;;;;;;;8.65;5.00;;;;;;;;;;10359568;28;20037;-61
2022/11/07 22:39:26;;;;;;;9.23;4.63;;;;;;;;;;10357561;28;20077;-58
2022/11/07 22:44:27;;;;;;;9.40;4.75;;;;;;;;;;10364985;28;20117;-60
2022/11/07 22:49:27;;;;;;;12.33;4.93;;;;;;;;;;10358755;28;20029;-60
2022/11/07 22:54:27;;;;;;;12.48;5.13;;;;;;;;;;10365228;28;20033;-61
2022/11/07 22:59:27;;;;;;;13.13;5.20;;;;;;;;;;10366477;28;20075;-61
2022/11/07 23:04:28;;;;;;;9.00;4.50;;;;;;;;;;10365997;28;20037;-59
2022/11/07 23:09:29;;;;;;;8.53;4.83;;;;;;;;;;10366704;28;20025;-60
2022/11/07 23:14:30;;;;;;;11.13;4.40;;;;;;;;;;10366788;28;20059;-61
2022/11/07 23:19:30;;;;;;;6.32;4.13;;;;;;;;;;10366317;28;20555;-60
2022/11/07 23:24:30;;;;;;;13.32;4.40;;;;;;;;;;10365217;28;20168;-60
2022/11/07 23:29:30;;;;;;;9.93;4.95;;;;;;;;;;10365049;28;20034;-60
2022/11/07 23:34:31;;;;;;;5.97;3.75;;;;;;;;;;10365537;28;20026;-61
2022/11/07 23:39:31;;;;;;;9.03;4.57;;;;;;;;;;10363157;28;20036;-59
2022/11/07 23:44:31;;;;;;;8.07;4.43;;;;;;;;;;10365248;28;20373;-60
